createdAt,value
2018-09-15T00:00:57.731Z,18.97
2018-09-15T00:03:26.743Z,16.33
2018-09-15T00:05:55.413Z,16.63
2018-09-15T00:08:24.047Z,16.80
2018-09-15T00:10:52.699Z,16.07
2018-09-15T00:13:22.374Z,17.97
2018-09-15T00:15:51.303Z,17.43
2018-09-15T00:18:19.983Z,16.53
2018-09-15T00:20:48.611Z,17.67
2018-09-15T00:23:17.271Z,19.43
2018-09-15T00:25:45.911Z,17.50
2018-09-15T00:28:14.559Z,17.03
2018-09-15T00:30:43.222Z,17.70
2018-09-15T00:33:11.942Z,17.30
2018-09-15T00:35:40.577Z,17.27
2018-09-15T00:38:09.246Z,16.27
2018-09-15T00:40:37.870Z,15.43
2018-09-15T00:43:06.554Z,15.33
2018-09-15T00:45:35.215Z,15.43
2018-09-15T00:48:03.862Z,15.67
2018-09-15T00:50:32.617Z,16.63
2018-09-15T00:53:01.711Z,16.87
2018-09-15T00:55:31.457Z,16.23
2018-09-15T00:58:00.088Z,15.90
2018-09-15T01:00:28.714Z,17.13
2018-09-15T01:02:57.428Z,15.83
2018-09-15T01:05:26.047Z,16.17
2018-09-15T01:07:54.671Z,15.83
2018-09-15T01:10:23.300Z,15.33
2018-09-15T01:12:51.921Z,15.60
2018-09-15T01:15:20.670Z,15.17
2018-09-15T01:17:49.310Z,21.20
2018-09-15T01:20:17.946Z,21.13
2018-09-15T01:22:46.569Z,18.13
2018-09-15T01:25:15.206Z,17.77
2018-09-15T01:27:43.895Z,15.60
2018-09-15T01:30:12.538Z,16.40
2018-09-15T01:32:41.182Z,16.47
2018-09-15T01:35:09.798Z,15.03
2018-09-15T01:37:38.558Z,14.77
2018-09-15T01:40:07.213Z,14.73
2018-09-15T01:42:35.834Z,15.10
2018-09-15T01:45:04.583Z,15.50
2018-09-15T01:47:33.187Z,16.00
2018-09-15T01:50:01.921Z,20.20
2018-09-15T01:52:30.601Z,18.57
2018-09-15T01:54:59.222Z,17.67
2018-09-15T01:57:28.171Z,15.70
2018-09-15T01:59:56.806Z,15.97
2018-09-15T02:02:25.541Z,15.03
2018-09-15T02:04:54.169Z,15.00
2018-09-15T02:07:22.845Z,16.93
2018-09-15T02:09:51.473Z,17.10
2018-09-15T02:12:20.105Z,16.23
2018-09-15T02:14:48.969Z,15.47
2018-09-15T02:17:17.604Z,14.53
2018-09-15T02:19:46.231Z,14.43
2018-09-15T02:22:14.934Z,15.13
2018-09-15T02:24:43.558Z,14.03
2018-09-15T02:27:12.214Z,15.67
2018-09-15T02:29:40.849Z,14.17
2018-09-15T02:32:09.492Z,14.57
2018-09-15T02:34:38.134Z,14.57
2018-09-15T02:37:06.821Z,15.53
2018-09-15T02:39:35.481Z,15.37
2018-09-15T02:42:04.175Z,15.00
2018-09-15T02:44:39.302Z,14.70
2018-09-15T02:47:07.926Z,15.33
2018-09-15T02:49:36.598Z,15.83
2018-09-15T02:52:05.281Z,14.93
2018-09-15T02:54:33.927Z,13.83
2018-09-15T02:57:02.606Z,15.50
2018-09-15T02:59:31.279Z,15.90
2018-09-15T03:01:59.985Z,13.90
2018-09-15T03:04:28.656Z,13.73
2018-09-15T03:06:57.318Z,14.37
2018-09-15T03:09:25.995Z,13.90
2018-09-15T03:11:54.648Z,14.43
2018-09-15T03:14:23.267Z,13.43
2018-09-15T03:16:52.010Z,13.90
2018-09-15T03:19:20.686Z,14.87
2018-09-15T03:21:49.297Z,16.80
2018-09-15T03:24:17.949Z,17.00
2018-09-15T03:26:46.590Z,16.97
2018-09-15T03:29:15.252Z,16.90
2018-09-15T03:31:43.896Z,16.50
2018-09-15T03:34:12.512Z,16.80
2018-09-15T03:36:41.151Z,17.73
2018-09-15T03:39:11.230Z,17.00
2018-09-15T03:41:40.069Z,16.70
2018-09-15T03:44:08.595Z,17.80
2018-09-15T03:46:37.215Z,18.03
2018-09-15T03:49:05.997Z,17.43
2018-09-15T03:51:34.654Z,20.90
2018-09-15T03:54:03.397Z,20.37
2018-09-15T03:56:32.069Z,20.40
2018-09-15T03:59:00.704Z,20.63
2018-09-15T04:01:29.357Z,21.37
2018-09-15T04:03:58.001Z,21.63
2018-09-15T04:06:26.750Z,21.27
2018-09-15T04:08:55.412Z,21.50
2018-09-15T04:11:24.057Z,20.87
2018-09-15T04:13:52.712Z,20.93
2018-09-15T04:16:21.312Z,20.83
2018-09-15T04:18:50.112Z,20.13
2018-09-15T04:21:18.743Z,19.90
2018-09-15T04:23:47.390Z,18.87
2018-09-15T04:26:16.025Z,21.57
2018-09-15T04:28:44.824Z,20.53
2018-09-15T04:31:13.603Z,22.17
2018-09-15T04:33:42.389Z,19.80
2018-09-15T04:36:11.128Z,19.70
2018-09-15T04:38:40.166Z,19.73
2018-09-15T04:41:08.936Z,20.63
2018-09-15T04:43:37.634Z,20.13
2018-09-15T04:46:06.687Z,21.23
2018-09-15T04:48:35.342Z,21.13
2018-09-15T04:51:04.016Z,22.30
2018-09-15T04:53:32.630Z,22.70
2018-09-15T04:56:01.473Z,20.10
2018-09-15T04:58:30.093Z,20.70
2018-09-15T05:00:58.826Z,22.50
2018-09-15T05:03:27.548Z,21.10
2018-09-15T05:05:56.169Z,19.97
2018-09-15T05:08:24.846Z,21.83
2018-09-15T05:10:53.466Z,21.53
2018-09-15T05:13:22.114Z,20.77
2018-09-15T05:15:51.044Z,19.70
2018-09-15T05:18:19.661Z,18.60
2018-09-15T05:20:48.290Z,19.73
2018-09-15T05:23:16.938Z,19.77
2018-09-15T05:25:45.548Z,19.27
2018-09-15T05:28:14.193Z,18.67
2018-09-15T05:30:42.832Z,19.10
2018-09-15T05:33:11.472Z,17.47
2018-09-15T05:35:40.085Z,17.90
2018-09-15T05:38:08.765Z,16.53
2018-09-15T05:40:37.382Z,18.90
2018-09-15T05:43:06.074Z,17.60
2018-09-15T05:45:34.692Z,16.30
2018-09-15T05:48:03.430Z,16.20
2018-09-15T05:50:32.057Z,17.77
2018-09-15T05:53:00.865Z,15.77
2018-09-15T05:55:29.652Z,16.00
2018-09-15T05:57:58.293Z,15.60
2018-09-15T06:00:26.996Z,14.97
2018-09-15T06:02:55.600Z,16.07
2018-09-15T06:05:24.209Z,15.67
2018-09-15T06:07:52.858Z,14.93
2018-09-15T06:10:21.495Z,14.80
2018-09-15T06:12:50.256Z,16.00
2018-09-15T06:15:18.884Z,15.63
2018-09-15T06:17:47.595Z,16.13
2018-09-15T06:20:16.237Z,16.47
2018-09-15T06:22:44.873Z,15.63
2018-09-15T06:25:13.780Z,16.13
2018-09-15T06:27:42.397Z,15.37
2018-09-15T06:30:11.097Z,15.90
2018-09-15T06:32:39.737Z,14.73
2018-09-15T06:35:08.369Z,15.57
2018-09-15T06:37:37.041Z,15.00
2018-09-15T06:40:05.720Z,14.00
2018-09-15T06:42:34.354Z,14.53
2018-09-15T06:45:03.034Z,15.37
2018-09-15T06:47:31.657Z,15.00
2018-09-15T06:50:00.403Z,15.43
2018-09-15T06:52:29.052Z,15.77
2018-09-15T06:54:57.677Z,14.33
2018-09-15T06:57:26.339Z,13.00
2018-09-15T06:59:54.959Z,13.50
2018-09-15T07:02:23.680Z,14.23
2018-09-15T07:04:52.284Z,13.53
2018-09-15T07:07:20.910Z,13.63
2018-09-15T07:09:49.570Z,13.03
2018-09-15T07:12:18.191Z,12.13
2018-09-15T07:14:46.840Z,14.93
2018-09-15T07:17:15.483Z,14.93
2018-09-15T07:19:44.149Z,13.90
2018-09-15T07:22:12.787Z,14.10
2018-09-15T07:24:41.421Z,14.60
2018-09-15T07:27:10.222Z,12.53
2018-09-15T07:29:38.833Z,13.37
2018-09-15T07:32:07.501Z,10.03
2018-09-15T07:34:36.141Z,11.30
2018-09-15T07:37:04.761Z,10.93
2018-09-15T07:39:33.534Z,10.63
2018-09-15T07:42:02.413Z,10.73
2018-09-15T07:44:31.029Z,9.63
2018-09-15T07:46:59.671Z,8.50
2018-09-15T07:49:28.280Z,8.33
2018-09-15T07:51:57.021Z,7.13
2018-09-15T07:54:25.654Z,8.07
2018-09-15T07:56:54.252Z,6.50
2018-09-15T07:59:22.881Z,6.33
2018-09-15T08:01:51.500Z,6.03
2018-09-15T08:04:20.180Z,7.13
2018-09-15T08:06:48.792Z,6.37
2018-09-15T08:09:17.415Z,6.73
2018-09-15T08:11:46.102Z,7.57
2018-09-15T08:14:14.725Z,7.07
2018-09-15T08:16:43.424Z,6.77
2018-09-15T08:19:12.069Z,6.67
2018-09-15T08:21:40.685Z,7.17
2018-09-15T08:24:09.321Z,6.77
2018-09-15T08:26:37.936Z,7.37
2018-09-15T08:29:06.645Z,7.03
2018-09-15T08:31:35.261Z,7.47
2018-09-15T08:34:10.717Z,7.03
2018-09-15T08:36:39.349Z,6.93
2018-09-15T08:39:08.983Z,6.37
2018-09-15T08:41:37.605Z,6.70
2018-09-15T08:44:12.969Z,6.73
2018-09-15T08:46:41.616Z,7.77
2018-09-15T08:49:10.240Z,6.70
2018-09-15T08:51:38.888Z,7.00
2018-09-15T08:54:07.572Z,6.93
2018-09-15T08:56:36.182Z,9.10
2018-09-15T08:59:11.786Z,8.60
2018-09-15T09:01:40.436Z,7.13
2018-09-15T09:04:09.082Z,7.60
2018-09-15T09:06:37.783Z,6.27
2018-09-15T09:09:09.038Z,7.03
2018-09-15T09:11:37.803Z,8.03
2018-09-15T09:14:06.435Z,7.23
2018-09-15T09:16:35.076Z,6.03
2018-09-15T09:19:03.779Z,7.43
2018-09-15T09:21:32.793Z,6.10
2018-09-15T09:24:01.499Z,6.30
2018-09-15T09:26:30.202Z,5.10
2018-09-15T09:28:58.811Z,5.53
2018-09-15T09:31:27.463Z,5.90
2018-09-15T09:33:56.112Z,6.00
2018-09-15T09:36:24.793Z,5.37
2018-09-15T09:38:53.425Z,5.27
2018-09-15T09:41:22.095Z,5.63
2018-09-15T09:43:50.775Z,5.03
2018-09-15T09:46:19.421Z,5.37
2018-09-15T09:48:48.046Z,5.40
2018-09-15T09:51:16.683Z,4.43
2018-09-15T09:53:45.322Z,4.50
2018-09-15T09:56:14.058Z,4.47
2018-09-15T09:58:42.681Z,4.80
2018-09-15T10:01:16.673Z,4.53
2018-09-15T10:03:45.369Z,4.23
2018-09-15T10:06:13.989Z,4.43
2018-09-15T10:08:42.630Z,4.70
2018-09-15T10:11:11.256Z,4.47
2018-09-15T10:13:39.909Z,4.53
2018-09-15T10:16:08.569Z,5.10
2018-09-15T10:18:37.340Z,4.53
2018-09-15T10:21:06.051Z,5.40
2018-09-15T10:23:34.653Z,4.80
2018-09-15T10:26:03.338Z,4.20
2018-09-15T10:28:31.954Z,4.27
2018-09-15T10:31:00.850Z,4.50
2018-09-15T10:33:29.491Z,4.67
2018-09-15T10:35:58.116Z,4.43
2018-09-15T10:38:26.803Z,4.30
2018-09-15T10:40:55.420Z,4.73
2018-09-15T10:43:24.050Z,5.13
2018-09-15T10:45:52.712Z,4.10
2018-09-15T10:48:21.336Z,3.80
2018-09-15T10:50:50.007Z,4.00
2018-09-15T10:53:18.744Z,3.97
2018-09-15T10:55:47.381Z,4.00
2018-09-15T10:58:15.996Z,3.97
2018-09-15T11:00:44.687Z,4.47
2018-09-15T11:03:13.291Z,4.20
2018-09-15T11:05:41.959Z,3.83
2018-09-15T11:08:10.626Z,3.80
2018-09-15T11:10:39.234Z,3.20
2018-09-15T11:13:08.188Z,4.00
2018-09-15T11:15:36.798Z,4.43
2018-09-15T11:18:05.566Z,3.80
2018-09-15T11:20:34.277Z,3.50
2018-09-15T11:23:02.914Z,3.90
2018-09-15T11:25:31.644Z,2.87
2018-09-15T11:28:00.261Z,3.83
2018-09-15T11:30:28.858Z,4.10
2018-09-15T11:32:57.509Z,3.53
2018-09-15T11:35:26.160Z,3.83
2018-09-15T11:37:54.813Z,3.57
2018-09-15T11:40:23.447Z,3.47
2018-09-15T11:42:52.105Z,3.70
2018-09-15T11:45:20.765Z,3.87
2018-09-15T11:47:49.434Z,4.73
2018-09-15T11:50:18.213Z,3.60
2018-09-15T11:52:47.349Z,3.80
2018-09-15T11:55:16.101Z,3.70
2018-09-15T11:57:44.719Z,3.90
2018-09-15T12:00:13.449Z,4.37
2018-09-15T12:02:42.071Z,4.47
2018-09-15T12:05:10.701Z,3.30
2018-09-15T12:07:39.387Z,4.07
2018-09-15T12:10:08.009Z,3.93
2018-09-15T12:12:36.626Z,3.70
2018-09-15T12:15:05.411Z,3.77
2018-09-15T12:17:34.152Z,3.30
2018-09-15T12:20:03.112Z,4.23
2018-09-15T12:22:31.737Z,3.37
2018-09-15T12:25:00.425Z,3.27
2018-09-15T12:27:29.057Z,4.40
2018-09-15T12:29:57.769Z,4.33
2018-09-15T12:32:26.417Z,4.10
2018-09-15T12:34:55.040Z,4.03
2018-09-15T12:37:23.694Z,4.50
2018-09-15T12:39:52.354Z,4.60
2018-09-15T12:42:20.985Z,3.97
2018-09-15T12:44:49.614Z,3.30
2018-09-15T12:47:18.334Z,3.50
2018-09-15T12:49:46.953Z,3.33
2018-09-15T12:52:15.633Z,3.67
2018-09-15T12:54:44.322Z,2.50
2018-09-15T12:57:12.937Z,3.50
2018-09-15T12:59:41.674Z,2.83
2018-09-15T13:02:10.929Z,3.37
2018-09-15T13:04:39.534Z,3.03
2018-09-15T13:07:08.212Z,4.17
2018-09-15T13:09:36.858Z,3.20
2018-09-15T13:12:05.812Z,4.97
2018-09-15T13:14:34.513Z,3.57
2018-09-15T13:17:03.232Z,2.63
2018-09-15T13:19:31.891Z,3.27
2018-09-15T13:22:00.559Z,3.50
2018-09-15T13:24:29.255Z,2.83
2018-09-15T13:26:57.910Z,3.30
2018-09-15T13:29:26.601Z,3.00
2018-09-15T13:31:55.553Z,3.00
2018-09-15T13:34:24.242Z,3.37
2018-09-15T13:36:52.885Z,3.60
2018-09-15T13:39:21.572Z,3.20
2018-09-15T13:41:50.261Z,3.03
2018-09-15T13:44:18.930Z,3.30
2018-09-15T13:46:47.642Z,3.60
2018-09-15T13:49:16.260Z,2.90
2018-09-15T13:51:44.928Z,3.30
2018-09-15T13:54:13.606Z,3.10
2018-09-15T13:56:42.360Z,3.30
2018-09-15T13:59:11.078Z,2.90
2018-09-15T14:01:39.781Z,3.40
2018-09-15T14:04:08.497Z,2.77
2018-09-15T14:06:37.168Z,2.50
2018-09-15T14:09:07.918Z,2.93
2018-09-15T14:11:36.670Z,2.70
2018-09-15T14:14:05.711Z,3.20
2018-09-15T14:16:34.467Z,2.63
2018-09-15T14:19:03.293Z,2.70
2018-09-15T14:21:31.963Z,2.70
2018-09-15T14:24:00.627Z,3.13
2018-09-15T14:26:29.378Z,3.03
2018-09-15T14:28:58.022Z,2.80
2018-09-15T14:31:26.674Z,3.53
2018-09-15T14:33:55.368Z,2.73
2018-09-15T14:36:24.014Z,3.00
2018-09-15T14:38:52.654Z,2.87
2018-09-15T14:41:21.306Z,3.03
2018-09-15T14:43:50.021Z,3.20
2018-09-15T14:46:18.896Z,2.57
2018-09-15T14:48:47.589Z,3.10
2018-09-15T14:51:16.275Z,3.10
2018-09-15T14:53:45.023Z,2.50
2018-09-15T14:56:13.711Z,3.50
2018-09-15T14:58:42.483Z,3.63
2018-09-15T15:01:11.122Z,2.60
2018-09-15T15:03:39.805Z,3.40
2018-09-15T15:06:08.519Z,2.70
2018-09-15T15:08:37.130Z,3.50
2018-09-15T15:11:05.910Z,3.33
2018-09-15T15:13:34.567Z,3.83
2018-09-15T15:16:03.216Z,2.93
2018-09-15T15:18:31.887Z,3.37
2018-09-15T15:21:00.549Z,2.97
2018-09-15T15:23:29.263Z,2.40
2018-09-15T15:25:57.948Z,3.30
2018-09-15T15:28:26.565Z,2.90
2018-09-15T15:30:55.210Z,2.93
2018-09-15T15:33:23.870Z,3.60
2018-09-15T15:35:52.605Z,2.87
2018-09-15T15:38:21.255Z,2.93
2018-09-15T15:40:49.921Z,2.97
2018-09-15T15:43:18.655Z,2.93
2018-09-15T15:45:47.315Z,3.30
2018-09-15T15:48:16.067Z,3.13
2018-09-15T15:50:44.701Z,3.00
2018-09-15T15:53:13.324Z,2.87
2018-09-15T15:55:42.108Z,3.10
2018-09-15T15:58:10.739Z,3.00
2018-09-15T16:00:39.421Z,3.30
2018-09-15T16:03:08.156Z,2.73
2018-09-15T16:05:36.808Z,2.83
2018-09-15T16:08:05.478Z,3.00
2018-09-15T16:10:34.130Z,2.90
2018-09-15T16:13:03.053Z,2.90
2018-09-15T16:15:31.715Z,3.07
2018-09-15T16:18:00.396Z,2.90
2018-09-15T16:20:29.056Z,3.40
2018-09-15T16:23:01.188Z,2.73
2018-09-15T16:25:30.374Z,2.13
2018-09-15T16:27:58.989Z,2.90
2018-09-15T16:30:27.628Z,2.73
2018-09-15T16:32:56.264Z,3.00
2018-09-15T16:35:24.877Z,2.77
2018-09-15T16:38:00.304Z,3.83
2018-09-15T16:40:28.968Z,2.83
2018-09-15T16:42:57.581Z,3.10
2018-09-15T16:45:26.246Z,2.97
2018-09-15T16:47:54.898Z,3.03
2018-09-15T16:50:23.642Z,3.30
2018-09-15T16:52:52.338Z,2.53
2018-09-15T16:55:20.985Z,2.60
2018-09-15T16:57:49.619Z,2.60
2018-09-15T17:00:18.245Z,2.77
2018-09-15T17:02:46.930Z,2.23
2018-09-15T17:05:15.553Z,3.13
2018-09-15T17:07:44.216Z,2.77
2018-09-15T17:10:13.130Z,3.20
2018-09-15T17:12:41.689Z,2.63
2018-09-15T17:15:10.459Z,2.70
2018-09-15T17:17:39.101Z,3.10
2018-09-15T17:20:07.837Z,2.93
2018-09-15T17:22:36.548Z,2.53
2018-09-15T17:25:05.138Z,2.80
2018-09-15T17:27:33.813Z,3.47
2018-09-15T17:30:02.440Z,3.07
2018-09-15T17:32:31.076Z,3.00
2018-09-15T17:34:59.814Z,3.40
2018-09-15T17:37:28.441Z,3.57
2018-09-15T17:39:57.252Z,3.40
2018-09-15T17:42:25.822Z,3.70
2018-09-15T17:44:54.434Z,4.37
2018-09-15T17:47:23.115Z,3.90
2018-09-15T17:49:51.799Z,3.30
2018-09-15T17:52:20.710Z,3.50
2018-09-15T17:54:49.494Z,3.27
2018-09-15T17:57:18.009Z,3.40
2018-09-15T17:59:46.653Z,3.23
2018-09-15T18:02:15.297Z,3.37
2018-09-15T18:04:44.324Z,3.30
2018-09-15T18:07:12.953Z,3.37
2018-09-15T18:09:41.620Z,3.30
2018-09-15T18:12:10.275Z,3.03
2018-09-15T18:14:39.068Z,2.90
2018-09-15T18:17:07.990Z,2.90
2018-09-15T18:19:36.605Z,3.03
2018-09-15T18:22:05.259Z,2.90
2018-09-15T18:24:33.894Z,3.17
2018-09-15T18:27:02.509Z,3.37
2018-09-15T18:29:31.234Z,3.00
2018-09-15T18:31:59.833Z,3.80
2018-09-15T18:34:28.484Z,5.33
2018-09-15T18:36:57.301Z,8.23
2018-09-15T18:39:25.790Z,11.60
2018-09-15T18:41:54.540Z,11.23
2018-09-15T18:44:23.153Z,8.33
2018-09-15T18:46:51.801Z,6.53
2018-09-15T18:49:20.425Z,6.17
2018-09-15T18:51:49.068Z,5.00
2018-09-15T18:54:17.894Z,4.70
2018-09-15T18:56:46.541Z,4.57
2018-09-15T18:59:15.179Z,4.70
2018-09-15T19:01:43.874Z,4.63
2018-09-15T19:04:12.465Z,5.00
2018-09-15T19:06:41.106Z,4.47
2018-09-15T19:09:11.107Z,6.50
2018-09-15T19:11:40.290Z,5.13
2018-09-15T19:14:09.009Z,4.37
2018-09-15T19:16:37.727Z,4.10
2018-09-15T19:19:06.687Z,4.37
2018-09-15T19:21:35.345Z,4.07
2018-09-15T19:24:03.962Z,4.07
2018-09-15T19:26:32.635Z,3.70
2018-09-15T19:29:01.310Z,3.93
2018-09-15T19:31:30.068Z,3.63
2018-09-15T19:33:58.702Z,3.50
2018-09-15T19:36:27.366Z,4.40
2018-09-15T19:38:56.141Z,4.33
2018-09-15T19:41:24.734Z,3.90
2018-09-15T19:43:53.697Z,4.30
2018-09-15T19:46:22.334Z,3.60
2018-09-15T19:48:50.952Z,3.57
2018-09-15T19:51:19.660Z,3.97
2018-09-15T19:53:48.293Z,3.93
2018-09-15T19:56:17.083Z,3.93
2018-09-15T19:58:45.765Z,3.77
2018-09-15T20:01:14.393Z,3.57
2018-09-15T20:03:43.041Z,4.00
2018-09-15T20:06:11.802Z,3.87
2018-09-15T20:08:40.397Z,4.00
2018-09-15T20:11:09.061Z,3.93
2018-09-15T20:13:37.737Z,4.50
2018-09-15T20:16:05.162Z,4.00
2018-09-15T20:18:32.557Z,4.33
2018-09-15T20:21:00.079Z,4.47
2018-09-15T20:23:28.729Z,4.40
2018-09-15T20:25:57.325Z,4.67
2018-09-15T20:28:25.998Z,4.77
2018-09-15T20:30:54.661Z,4.73
2018-09-15T20:33:23.425Z,4.40
2018-09-15T20:35:52.008Z,5.03
2018-09-15T20:38:20.661Z,5.27
2018-09-15T20:40:49.300Z,6.23
2018-09-15T20:43:17.934Z,5.97
2018-09-15T20:45:46.728Z,5.60
2018-09-15T20:48:15.392Z,6.00
2018-09-15T20:50:44.062Z,6.10
2018-09-15T20:53:12.697Z,5.87
2018-09-15T20:55:41.305Z,5.70
2018-09-15T20:58:09.954Z,5.33
2018-09-15T21:00:38.557Z,5.40
2018-09-15T21:03:07.178Z,6.73
2018-09-15T21:05:35.823Z,6.10
2018-09-15T21:08:04.462Z,6.33
2018-09-15T21:10:33.093Z,6.83
2018-09-15T21:13:01.722Z,6.10
2018-09-15T21:15:30.357Z,6.83
2018-09-15T21:17:59.877Z,6.50
2018-09-15T21:20:28.497Z,6.47
2018-09-15T21:22:57.189Z,6.77
2018-09-15T21:25:25.901Z,6.43
2018-09-15T21:27:54.595Z,7.60
2018-09-15T21:30:23.339Z,6.90
2018-09-15T21:32:51.949Z,6.57
2018-09-15T21:35:20.577Z,6.90
2018-09-15T21:37:49.234Z,7.80
2018-09-15T21:40:17.858Z,7.63
2018-09-15T21:42:46.512Z,7.50
2018-09-15T21:45:15.172Z,7.60
2018-09-15T21:47:43.802Z,6.90
2018-09-15T21:50:12.434Z,8.03
2018-09-15T21:52:41.057Z,8.53
2018-09-15T21:55:09.725Z,8.27
2018-09-15T21:57:38.354Z,7.77
2018-09-15T22:00:09.709Z,8.83
2018-09-15T22:02:38.342Z,9.33
2018-09-15T22:05:07.054Z,8.23
2018-09-15T22:07:35.674Z,8.03
2018-09-15T22:10:04.421Z,8.10
2018-09-15T22:12:33.077Z,8.23
2018-09-15T22:15:01.805Z,8.00
2018-09-15T22:17:30.421Z,8.13
2018-09-15T22:19:59.039Z,8.20
2018-09-15T22:22:27.712Z,8.10
2018-09-15T22:24:56.329Z,8.90
2018-09-15T22:27:25.276Z,7.87
2018-09-15T22:29:53.898Z,8.40
2018-09-15T22:32:22.516Z,8.13
2018-09-15T22:34:51.169Z,7.97
2018-09-15T22:37:19.806Z,7.77
2018-09-15T22:39:48.582Z,8.53
2018-09-15T22:42:17.265Z,7.90
2018-09-15T22:44:45.905Z,8.50
2018-09-15T22:47:14.546Z,8.37
2018-09-15T22:49:43.154Z,8.00
2018-09-15T22:52:11.809Z,9.90
2018-09-15T22:54:40.459Z,7.87
2018-09-15T22:57:09.070Z,10.40
2018-09-15T22:59:37.725Z,9.27
2018-09-15T23:02:06.510Z,8.70
2018-09-15T23:04:35.162Z,8.43
2018-09-15T23:07:03.854Z,7.90
2018-09-15T23:09:32.477Z,8.67
2018-09-15T23:12:01.185Z,8.33
2018-09-15T23:14:29.965Z,8.97
2018-09-15T23:16:58.598Z,6.73
2018-09-15T23:19:27.221Z,8.17
2018-09-15T23:21:55.857Z,9.07
2018-09-15T23:24:24.462Z,8.60
2018-09-15T23:26:53.177Z,7.87
2018-09-15T23:29:21.817Z,8.13
2018-09-15T23:31:50.422Z,8.27
2018-09-15T23:34:21.955Z,8.37
2018-09-15T23:36:50.741Z,9.27
2018-09-15T23:39:19.469Z,9.13
2018-09-15T23:41:48.120Z,10.43
2018-09-15T23:44:16.717Z,9.77
2018-09-15T23:46:45.355Z,8.63
2018-09-15T23:49:13.977Z,9.10
2018-09-15T23:51:42.725Z,7.90
2018-09-15T23:54:11.359Z,8.73
2018-09-15T23:56:39.954Z,8.63
2018-09-15T23:59:08.702Z,8.27
